Time;durP1;ratioP1;P1;durP2;ratioP2;P2;SDS_P1;SDS_P2;PMS_P1;PMS_P2;Temp;Humidity;BMP_temperature;BMP_pressure;BME280_temperature;BME280_humidity;BME280_pressure;Samples;Min_cycle;Max_cycle;Signal;HPM_P1;HPM_P2
2023/06/28 00:01:43;;;;;;;5.00;1.75;;;18.20;81.80;;;18.03;59.13;97402.81;5032182;28;20079;-37
2023/06/28 00:04:09;;;;;;;2.75;1.45;;;18.20;82.10;;;18.00;58.91;97395.03;5033003;28;20041;-37
2023/06/28 00:06:35;;;;;;;2.85;1.70;;;18.10;82.10;;;17.98;59.50;97404.97;5029648;28;20091;-38
2023/06/28 00:09:01;;;;;;;4.55;1.23;;;18.10;82.50;;;17.96;56.87;97398.84;5027929;28;20025;-38
2023/06/28 00:11:28;;;;;;;2.88;1.42;;;18.10;80.70;;;17.94;58.46;97403.44;5030916;28;20511;-37
2023/06/28 00:13:53;;;;;;;3.42;1.30;;;18.00;81.80;;;17.85;58.86;97399.56;5031323;28;20033;-38
2023/06/28 00:16:20;;;;;;;3.67;1.52;;;18.00;82.10;;;17.86;57.25;97405.78;5028521;28;20079;-37
2023/06/28 00:18:46;;;;;;;3.40;1.70;;;18.00;81.30;;;17.86;58.78;97416.44;5031047;28;20026;-37
2023/06/28 00:21:13;;;;;;;3.67;1.63;;;18.00;82.10;;;17.81;59.68;97408.69;5019871;28;20044;-38
2023/06/28 00:23:39;;;;;;;2.88;1.52;;;17.90;82.70;;;17.73;59.84;97395.88;5034595;28;20044;-37
2023/06/28 00:26:05;;;;;;;1.90;1.17;;;17.90;82.90;;;17.76;60.82;97410.81;5025000;28;20068;-37
2023/06/28 00:28:31;;;;;;;3.13;1.20;;;17.90;83.20;;;17.73;61.35;97405.72;5035235;28;20037;-38
2023/06/28 00:30:56;;;;;;;3.30;1.67;;;17.90;83.80;;;17.56;59.73;97388.97;5025101;28;20033;-37
2023/06/28 00:33:22;;;;;;;3.80;1.17;;;17.80;83.30;;;17.66;60.62;97415.91;5032866;28;20139;-38
2023/06/28 00:35:48;;;;;;;3.10;1.52;;;17.80;83.30;;;17.63;61.53;97420.59;5028427;28;20032;-38
2023/06/28 00:38:14;;;;;;;7.20;1.77;;;17.80;83.80;;;17.56;60.02;97415.63;5034461;28;20021;-38
2023/06/28 00:40:40;;;;;;;3.38;1.60;;;17.70;82.70;;;17.60;59.59;97415.44;5032450;28;20537;-38
2023/06/28 00:43:07;;;;;;;2.15;1.38;;;17.70;82.70;;;17.59;60.46;97419.94;5036117;28;20419;-37
2023/06/28 00:45:33;;;;;;;2.97;1.23;;;17.70;83.10;;;17.56;59.75;97423.63;5030044;28;20033;-38
2023/06/28 00:47:59;;;;;;;5.30;1.67;;;17.70;82.90;;;17.54;59.68;97420.22;5035562;28;20063;-38
2023/06/28 00:50:26;;;;;;;3.30;1.40;;;17.70;82.80;;;17.56;60.05;97423.63;5030428;28;20045;-37
2023/06/28 00:52:52;;;;;;;2.17;1.52;;;17.70;82.90;;;17.57;60.20;97427.19;5031993;28;20021;-37
2023/06/28 00:55:18;;;;;;;3.50;1.50;;;17.70;83.20;;;17.54;60.49;97422.88;5021929;28;20029;-37
2023/06/28 00:57:43;;;;;;;2.90;1.45;;;17.70;83.40;;;17.56;59.86;97433.47;5027946;28;20112;-37
2023/06/28 01:00:12;;;;;;;1.42;1.05;;;17.70;83.00;;;17.56;60.51;97441.44;5023849;28;20037;-37
2023/06/28 01:02:41;;;;;;;2.75;1.40;;;17.70;83.30;;;17.53;61.83;97430.97;5025540;28;21150;-36
2023/06/28 01:05:11;;;;;;;3.50;1.50;;;17.70;84.30;;;17.45;61.10;97427.97;5024485;28;20039;-37
2023/06/28 01:07:38;;;;;;;4.00;1.23;;;17.60;83.80;;;17.52;60.86;97435.47;5024147;28;20025;-37
2023/06/28 01:10:05;;;;;;;2.10;1.38;;;17.60;83.60;;;17.50;60.37;97442.72;5002862;28;20094;-37
2023/06/28 01:12:31;;;;;;;4.93;1.42;;;17.60;83.30;;;17.52;60.43;97453.28;5022044;28;20115;-37
2023/06/28 01:14:56;;;;;;;3.15;1.58;;;17.60;83.40;;;17.51;61.19;97448.91;5021108;28;20613;-37
2023/06/28 01:17:22;;;;;;;4.28;1.65;;;17.60;83.80;;;17.49;63.22;97453.47;5022816;28;20522;-37
2023/06/28 01:19:49;;;;;;;2.90;1.52;;;17.60;85.00;;;17.48;63.18;97454.41;5027984;28;20028;-37
2023/06/28 01:22:14;;;;;;;3.38;1.50;;;17.60;85.10;;;17.39;63.47;97444.34;5022893;28;20257;-37
2023/06/28 01:24:46;;;;;;;2.83;1.52;;;17.60;85.10;;;17.40;64.54;97451.41;5023730;28;20088;-38
2023/06/28 01:27:13;;;;;;;2.40;1.35;;;17.50;85.80;;;17.40;64.50;97454.06;5009981;28;20033;-37
2023/06/28 01:29:40;;;;;;;3.03;1.40;;;17.50;85.80;;;17.40;64.22;97457.56;5013691;28;20216;-37
2023/06/28 01:32:07;;;;;;;3.03;1.35;;;17.50;85.60;;;17.41;64.67;97450.44;5024749;28;20036;-36
2023/06/28 01:34:32;;;;;;;5.03;1.63;;;17.50;85.80;;;17.40;63.95;97446.06;5025842;28;20036;-36
2023/06/28 01:37:01;;;;;;;2.55;1.48;;;17.50;85.50;;;17.40;63.23;97441.56;5029492;28;20021;-36
2023/06/28 01:39:30;;;;;;;4.03;1.40;;;17.50;85.10;;;17.43;63.15;97446.72;5024817;28;20059;-36
2023/06/28 01:41:59;;;;;;;2.50;1.30;;;17.50;85.10;;;17.44;64.25;97444.91;5021426;28;21080;-36
2023/06/28 01:44:24;;;;;;;4.30;1.40;;;17.50;85.50;;;17.41;64.82;97439.75;5025331;28;20031;-36
2023/06/28 01:46:52;;;;;;;2.70;1.50;;;17.50;85.90;;;17.38;65.61;97442.66;5006001;28;20041;-36
2023/06/28 01:49:17;;;;;;;2.33;1.50;;;17.50;86.50;;;17.26;64.89;97426.47;5026763;28;20044;-36
2023/06/28 01:51:43;;;;;;;5.10;1.70;;;17.50;86.20;;;17.34;65.05;97444.66;5008533;28;20473;-36
2023/06/28 01:54:09;;;;;;;3.72;1.60;;;17.50;86.00;;;17.33;67.33;97446.44;5027113;28;20033;-36
2023/06/28 01:56:35;;;;;;;2.80;1.60;;;17.40;87.30;;;17.28;70.24;97445.91;5031677;28;20037;-36
2023/06/28 01:59:01;;;;;;;7.65;1.48;;;17.40;88.90;;;17.22;73.35;97446.28;5028601;28;20078;-36
2023/06/28 02:01:26;;;;;;;2.88;1.52;;;17.30;90.10;;;17.14;74.72;97443.25;5024038;28;20490;-36
2023/06/28 02:03:52;;;;;;;4.15;1.50;;;17.30;90.50;;;17.09;72.37;97446.19;5030754;28;20043;-36
2023/06/28 02:06:18;;;;;;;2.55;1.58;;;17.20;89.90;;;16.96;75.52;97439.94;5026358;28;20491;-36
2023/06/28 02:08:44;;;;;;;3.85;1.85;;;17.20;90.60;;;16.94;78.08;97444.47;5013062;28;20116;-36
2023/06/28 02:11:09;;;;;;;5.53;1.88;;;17.10;91.00;;;16.86;76.36;97431.63;5020704;28;20130;-36
2023/06/28 02:13:35;;;;;;;3.95;1.67;;;17.10;90.80;;;16.86;74.35;97430.78;4985886;28;20502;-36
2023/06/28 02:16:02;;;;;;;2.85;1.40;;;17.00;90.30;;;16.89;74.34;97442.09;5015275;28;20029;-36
2023/06/28 02:18:28;;;;;;;7.30;1.52;;;17.00;90.30;;;16.91;73.87;97440.19;5026665;28;20028;-36
2023/06/28 02:20:54;;;;;;;3.25;1.60;;;17.00;90.30;;;16.89;73.46;97439.44;5024648;28;20520;-36
2023/06/28 02:23:20;;;;;;;5.13;1.70;;;17.00;90.20;;;16.89;73.78;97439.44;5028647;28;20092;-36
2023/06/28 02:25:45;;;;;;;4.07;1.80;;;17.00;90.30;;;16.89;74.94;97428.78;5027869;28;20383;-36
2023/06/28 02:28:11;;;;;;;3.08;1.73;;;17.00;90.50;;;16.88;75.40;97432.38;5023069;28;20068;-36
2023/06/28 02:30:37;;;;;;;2.38;1.50;;;17.00;90.60;;;16.91;73.95;97439.34;5022492;28;20025;-36
2023/06/28 02:33:03;;;;;;;2.63;1.38;;;17.10;90.40;;;16.95;73.04;97439.06;5022792;28;20037;-36
2023/06/28 02:35:28;;;;;;;2.90;1.77;;;17.10;90.10;;;16.94;72.48;97434.69;5025820;28;20123;-36
2023/06/28 02:37:54;;;;;;;3.83;1.48;;;17.10;90.00;;;16.93;72.24;97435.63;5027029;28;20081;-36
2023/06/28 02:40:21;;;;;;;1.85;1.25;;;17.10;90.00;;;16.92;72.28;97433.94;5028665;28;20036;-36
2023/06/28 02:42:46;;;;;;;3.88;1.60;;;17.10;90.00;;;16.94;73.56;97442.69;5024948;28;20033;-36
2023/06/28 02:45:12;;;;;;;3.22;1.60;;;17.00;90.30;;;16.95;74.53;97440.88;5019262;28;20037;-36
2023/06/28 02:47:38;;;;;;;2.95;1.67;;;17.10;90.50;;;16.96;74.67;97443.44;5033334;28;20028;-36
2023/06/28 02:50:05;;;;;;;3.13;1.40;;;17.10;90.50;;;16.96;75.11;97434.59;5023143;28;20317;-36
2023/06/28 02:52:34;;;;;;;3.15;1.58;;;17.10;90.60;;;16.97;75.59;97434.47;5026207;28;20036;-36
2023/06/28 02:55:00;;;;;;;6.88;1.73;;;17.10;90.80;;;16.95;76.13;97439.06;5028294;28;20040;-37
2023/06/28 02:57:26;;;;;;;3.38;1.40;;;17.10;90.80;;;16.96;76.35;97438.13;5026924;28;20029;-37
2023/06/28 02:59:52;;;;;;;2.53;1.58;;;17.10;91.00;;;16.94;76.56;97442.69;5024754;28;20049;-37
2023/06/28 03:02:18;;;;;;;4.28;1.77;;;17.10;91.00;;;16.91;75.65;97436.69;5021210;28;20041;-37
2023/06/28 03:04:44;;;;;;;4.70;1.80;;;17.00;90.70;;;16.91;76.22;97434.03;5031715;28;20434;-37
2023/06/28 03:07:14;;;;;;;2.85;1.70;;;17.10;90.90;;;16.92;76.33;97436.59;5031397;28;20029;-37
2023/06/28 03:09:40;;;;;;;3.55;1.50;;;17.10;91.00;;;16.91;76.16;97437.53;5013833;28;20029;-37
2023/06/28 03:12:07;;;;;;;2.10;1.42;;;17.10;90.90;;;16.92;75.87;97428.59;5023418;28;20041;-37
2023/06/28 03:14:34;;;;;;;3.47;1.80;;;17.00;90.90;;;16.94;76.13;97436.47;5028170;28;20915;-37
2023/06/28 03:17:00;;;;;;;2.22;1.45;;;17.00;90.90;;;16.95;75.36;97439.06;5021831;28;20125;-37
2023/06/28 03:19:25;;;;;;;2.65;1.40;;;17.00;90.80;;;16.96;75.32;97435.44;5018032;28;20511;-38
2023/06/28 03:21:51;;;;;;;6.53;1.60;;;17.10;90.80;;;16.96;75.23;97431.94;5017539;28;20037;-37
2023/06/28 03:24:17;;;;;;;3.22;1.30;;;17.10;90.80;;;16.95;74.42;97433.72;5019167;28;20505;-38
2023/06/28 03:26:43;;;;;;;2.75;1.60;;;17.10;90.60;;;16.95;74.60;97433.72;5022912;28;20859;-37
2023/06/28 03:29:08;;;;;;;2.17;1.60;;;17.00;90.70;;;16.95;75.02;97432.88;5023043;28;20115;-37
2023/06/28 03:31:34;;;;;;;3.60;1.50;;;17.00;90.70;;;16.94;75.54;97429.38;5019231;28;20741;-37
2023/06/28 03:34:00;;;;;;;2.90;1.45;;;17.00;90.90;;;16.95;75.38;97436.38;5023233;28;20346;-38
2023/06/28 03:36:27;;;;;;;3.10;1.50;;;17.10;90.80;;;16.96;74.19;97435.44;5024741;28;20417;-37
2023/06/28 03:38:54;;;;;;;3.55;1.30;;;17.10;90.60;;;16.97;74.30;97426.47;5028461;28;20064;-37
2023/06/28 03:41:20;;;;;;;3.97;1.52;;;17.10;90.70;;;17.01;72.89;97429.81;5012078;28;20649;-37
2023/06/28 03:43:45;;;;;;;2.38;1.33;;;17.10;90.40;;;17.01;71.94;97420.97;5037160;28;20028;-38
2023/06/28 03:46:11;;;;;;;2.90;1.40;;;17.10;90.10;;;17.02;72.29;97420.88;5026474;28;20390;-36
2023/06/28 03:48:37;;;;;;;4.50;1.50;;;17.10;90.20;;;17.04;71.45;97423.47;5015716;28;20108;-36
2023/06/28 03:51:03;;;;;;;3.35;1.60;;;17.10;90.10;;;17.06;69.92;97427.72;5026918;28;20079;-36
2023/06/28 03:53:28;;;;;;;3.38;1.67;;;17.20;89.70;;;17.11;68.52;97422.13;5024983;28;20130;-36
2023/06/28 03:55:54;;;;;;;4.15;1.60;;;17.20;88.90;;;17.16;68.17;97420.88;5026525;28;20016;-36
2023/06/28 03:58:20;;;;;;;2.78;1.70;;;17.30;88.60;;;17.21;67.84;97425.94;5025342;28;20025;-36
2023/06/28 04:00:45;;;;;;;2.08;1.45;;;17.40;88.50;;;17.28;67.96;97429.91;5030795;28;20371;-36
2023/06/28 04:03:11;;;;;;;4.80;1.70;;;17.40;88.50;;;17.29;68.33;97418.28;5020628;28;20030;-36
2023/06/28 04:05:37;;;;;;;3.67;2.20;;;17.40;88.50;;;17.27;68.98;97419.34;5025005;28;20033;-36
2023/06/28 04:08:02;;;;;;;3.45;1.75;;;17.40;88.90;;;17.24;68.88;97423.03;5018632;28;20348;-36
2023/06/28 04:10:28;;;;;;;3.53;1.50;;;17.40;88.90;;;17.25;69.19;97427.44;5027492;28;20718;-36
2023/06/28 04:12:54;;;;;;;2.40;1.70;;;17.40;89.00;;;17.25;70.89;97426.59;5026486;28;20289;-36
2023/06/28 04:15:20;;;;;;;2.72;1.63;;;17.40;89.40;;;17.20;70.44;97421.53;5030604;28;20033;-36
2023/06/28 04:17:46;;;;;;;3.03;1.40;;;17.40;89.70;;;17.23;70.76;97424.00;5024568;28;20037;-36
2023/06/28 04:20:12;;;;;;;3.42;1.60;;;17.40;90.00;;;17.22;70.97;97424.94;5025015;28;20450;-36
2023/06/28 04:22:38;;;;;;;4.68;1.83;;;17.40;90.00;;;17.20;70.45;97420.69;5030864;28;20112;-36
2023/06/28 04:25:04;;;;;;;3.53;1.70;;;17.40;90.00;;;17.24;70.98;97435.53;5031914;28;20045;-36
2023/06/28 04:27:30;;;;;;;7.15;1.80;;;17.30;90.00;;;17.24;71.00;97431.03;5031433;28;20044;-36
2023/06/28 04:29:55;;;;;;;4.22;1.75;;;17.40;90.00;;;17.29;70.77;97444.09;5029884;28;20106;-36
2023/06/28 04:32:26;;;;;;;4.00;1.50;;;17.40;90.00;;;17.36;70.71;97440.91;5026844;28;20025;-36
2023/06/28 04:34:53;;;;;;;2.40;1.48;;;17.40;90.00;;;17.40;71.08;97438.06;5031083;28;20268;-36
2023/06/28 04:37:31;;;;;;;2.60;1.67;;;17.50;90.10;;;17.41;71.66;97435.31;5029977;28;20364;-36
2023/06/28 04:40:03;;;;;;;4.90;1.90;;;17.50;90.20;;;17.35;70.79;97433.91;5028341;28;20056;-36
2023/06/28 04:42:29;;;;;;;2.80;1.67;;;17.50;90.00;;;17.40;71.51;97438.91;5033005;28;20064;-38
2023/06/28 04:44:59;;;;;;;2.88;1.63;;;17.60;90.20;;;17.45;72.91;97443.97;5029384;28;20123;-37
2023/06/28 04:47:28;;;;;;;2.53;1.50;;;17.60;90.40;;;17.48;74.27;97441.97;5012366;28;20116;-38
2023/06/28 04:49:58;;;;;;;3.70;2.10;;;17.50;90.80;;;17.47;75.08;97439.38;5019707;28;20081;-37
2023/06/28 04:52:25;;;;;;;5.68;2.10;;;17.60;90.90;;;17.46;75.26;97435.88;5027854;28;20577;-38
2023/06/28 04:54:50;;;;;;;2.15;1.40;;;17.60;91.00;;;17.46;74.97;97443.88;5029862;28;20632;-38
2023/06/28 04:57:20;;;;;;;3.28;1.63;;;17.60;91.00;;;17.49;75.97;97443.66;5026817;28;20033;-38
2023/06/28 04:59:45;;;;;;;4.93;1.50;;;17.60;91.20;;;17.50;74.60;97444.53;5032725;28;20037;-38
2023/06/28 05:02:11;;;;;;;1.77;1.35;;;17.60;90.90;;;17.53;73.90;97452.31;5021972;28;20033;-39
2023/06/28 05:04:37;;;;;;;3.90;1.45;;;17.60;90.80;;;17.56;72.51;97442.31;5025526;28;20490;-38
2023/06/28 05:07:06;;;;;;;1.95;1.55;;;17.70;90.50;;;17.53;72.55;97431.84;5020860;28;20037;-39
2023/06/28 05:09:34;;;;;;;2.53;1.60;;;17.70;90.40;;;17.60;73.19;97442.97;5022124;28;20506;-38
2023/06/28 05:12:01;;;;;;;2.10;1.63;;;17.70;90.60;;;17.59;74.28;97443.94;5027773;28;20340;-36
2023/06/28 05:14:29;;;;;;;4.45;2.10;;;17.70;90.80;;;17.58;73.57;97444.88;5025208;28;20094;-36
2023/06/28 05:16:55;;;;;;;3.17;1.70;;;17.70;90.70;;;17.58;73.86;97449.34;5024800;28;20029;-36
2023/06/28 05:19:23;;;;;;;2.67;1.80;;;17.70;90.70;;;17.62;73.87;97445.53;5019620;28;20288;-36
2023/06/28 05:21:49;;;;;;;3.40;1.90;;;17.70;90.70;;;17.62;73.70;97438.41;5018463;28;20033;-36
2023/06/28 05:24:18;;;;;;;3.42;1.63;;;17.70;90.70;;;17.58;74.21;97428.03;5029885;28;20409;-36
2023/06/28 05:26:45;;;;;;;3.05;1.65;;;17.80;90.80;;;17.71;74.87;97450.25;5031613;28;20040;-36
2023/06/28 05:29:10;;;;;;;3.20;1.85;;;17.80;91.00;;;17.72;75.50;97444.84;5008060;28;20091;-36
2023/06/28 05:31:37;;;;;;;3.17;1.70;;;17.80;91.20;;;17.78;76.37;97451.56;5019760;28;20040;-36
2023/06/28 05:34:03;;;;;;;2.42;1.52;;;17.90;91.40;;;17.83;76.37;97448.63;5034658;28;20139;-37
2023/06/28 05:36:29;;;;;;;3.00;1.63;;;17.90;91.30;;;17.87;76.02;97450.16;5019571;28;20398;-39
2023/06/28 05:38:56;;;;;;;3.88;1.90;;;17.90;91.30;;;17.90;75.65;97444.63;5029600;28;20025;-37
2023/06/28 05:41:22;;;;;;;3.25;1.55;;;18.00;91.20;;;17.99;74.64;97444.00;5025330;28;20068;-37
2023/06/28 05:43:48;;;;;;;4.30;2.05;;;18.10;91.00;;;18.15;73.43;97449.19;5019062;28;20077;-37
2023/06/28 05:46:14;;;;;;;3.28;1.88;;;18.20;90.80;;;18.23;72.82;97438.88;5023833;28;20416;-38
2023/06/28 05:48:40;;;;;;;4.75;1.98;;;18.30;90.70;;;18.31;71.92;97443.69;5024084;28;20079;-38
2023/06/28 05:51:09;;;;;;;3.50;1.70;;;18.40;90.40;;;18.26;71.11;97427.97;5025187;28;20040;-38
2023/06/28 05:53:37;;;;;;;2.70;1.90;;;18.50;90.30;;;18.40;71.01;97435.03;5030702;28;20041;-39
2023/06/28 05:56:03;;;;;;;5.30;2.13;;;18.50;90.20;;;18.49;71.76;97436.22;5031502;28;20125;-38
2023/06/28 05:58:29;;;;;;;3.15;1.83;;;18.60;90.40;;;18.59;71.23;97431.09;5025569;28;20029;-36
2023/06/28 06:00:55;;;;;;;3.15;1.95;;;18.60;90.30;;;18.74;71.37;97434.53;5031920;28;20064;-36
2023/06/28 06:03:20;;;;;;;4.88;2.10;;;18.80;90.30;;;18.92;69.06;97437.78;5030168;28;20057;-36
2023/06/28 06:05:46;;;;;;;4.65;2.00;;;18.90;90.00;;;18.92;62.52;97427.09;5026458;28;20592;-36
2023/06/28 06:08:12;;;;;;;5.57;2.10;;;19.10;86.70;;;19.16;63.93;97436.03;5031005;28;20028;-36
2023/06/28 06:10:38;;;;;;;2.72;1.77;;;19.20;87.60;;;19.35;66.60;97442.75;5027381;28;20132;-36
2023/06/28 06:13:04;;;;;;;3.13;1.77;;;19.30;88.40;;;19.44;67.11;97445.59;5030693;28;20494;-36
2023/06/28 06:15:30;;;;;;;4.10;2.10;;;19.50;89.10;;;19.51;66.87;97445.19;5030354;28;20340;-36
2023/06/28 06:17:56;;;;;;;3.28;1.90;;;19.60;88.70;;;19.59;69.89;97437.44;5012014;28;20037;-37
2023/06/28 06:20:22;;;;;;;4.57;2.00;;;19.60;89.60;;;19.59;63.45;97416.88;5024875;28;20108;-37
2023/06/28 06:22:49;;;;;;;3.10;1.88;;;19.80;87.90;;;19.74;63.41;97439.03;5029177;28;20029;-36
2023/06/28 06:25:15;;;;;;;3.95;1.90;;;19.80;86.80;;;19.78;62.73;97436.97;5026381;28;20090;-36
2023/06/28 06:27:41;;;;;;;4.65;2.08;;;19.90;86.00;;;19.85;59.67;97440.91;5025970;28;20021;-36
2023/06/28 06:30:10;;;;;;;4.05;1.98;;;19.90;85.10;;;19.93;63.81;97440.34;5030464;28;20048;-38
2023/06/28 06:32:36;;;;;;;4.72;2.00;;;20.00;86.90;;;19.90;59.14;97436.06;5029734;28;20037;-36
2023/06/28 06:35:02;;;;;;;4.47;1.80;;;20.00;84.60;;;19.96;60.46;97435.59;5027057;28;20116;-36
2023/06/28 06:37:28;;;;;;;6.72;2.22;;;20.10;84.70;;;20.07;61.78;97436.63;5025810;28;20522;-36
2023/06/28 06:39:54;;;;;;;6.03;1.90;;;20.20;85.60;;;20.20;60.70;97448.13;5028662;28;20479;-37
2023/06/28 06:42:20;;;;;;;4.93;1.65;;;20.20;85.00;;;20.21;58.17;97449.84;5030983;28;20119;-37
2023/06/28 06:44:46;;;;;;;3.92;1.88;;;20.30;83.60;;;20.22;56.68;97446.16;5029518;28;20051;-36
2023/06/28 06:47:11;;;;;;;4.55;1.70;;;20.30;82.40;;;20.29;57.60;97443.91;5023421;28;20521;-37
2023/06/28 06:49:37;;;;;;;3.75;1.75;;;20.40;82.80;;;20.32;58.16;97449.03;5025270;28;20033;-37
2023/06/28 06:52:03;;;;;;;3.97;1.70;;;20.40;83.60;;;20.38;56.76;97445.88;5031881;28;20067;-37
2023/06/28 06:54:29;;;;;;;3.83;1.45;;;20.50;82.70;;;20.46;55.95;97450.63;5030293;28;20491;-36
2023/06/28 06:56:56;;;;;;;3.92;1.90;;;20.50;82.40;;;20.51;54.44;97452.00;5028580;28;20318;-36
2023/06/28 06:59:23;;;;;;;5.13;1.70;;;20.60;81.10;;;20.58;53.84;97452.38;5025444;28;20035;-37
2023/06/28 07:01:53;;;;;;;2.95;1.70;;;20.70;80.90;;;20.67;53.98;97442.81;5026860;28;20033;-36
2023/06/28 07:04:23;;;;;;;2.63;1.60;;;20.70;81.10;;;20.78;55.24;97448.19;5028599;28;20071;-37
2023/06/28 07:06:49;;;;;;;7.03;1.90;;;20.90;81.30;;;20.83;54.60;97453.19;5028888;28;20031;-37
2023/06/28 07:09:16;;;;;;;3.92;1.67;;;20.90;80.80;;;20.89;49.91;97460.75;5025473;28;20025;-36
2023/06/28 07:11:42;;;;;;;3.85;1.90;;;21.00;76.90;;;20.84;50.46;97457.59;5028444;28;20690;-37
2023/06/28 07:14:08;;;;;;;3.35;1.70;;;21.00;77.70;;;20.88;50.34;97464.41;5028824;28;20495;-37
2023/06/28 07:16:34;;;;;;;4.88;1.83;;;21.00;76.90;;;20.77;50.69;97451.84;5021154;28;20029;-37
2023/06/28 07:19:00;;;;;;;4.90;1.50;;;21.00;77.30;;;20.88;50.23;97459.06;5038068;28;20853;-38
2023/06/28 07:21:26;;;;;;;2.90;1.55;;;21.00;77.10;;;20.98;50.22;97455.53;5028759;28;20033;-38
2023/06/28 07:23:53;;;;;;;6.15;1.80;;;21.10;77.20;;;21.05;48.84;97463.09;5033225;28;20033;-38
2023/06/28 07:26:20;;;;;;;2.85;1.58;;;21.20;76.10;;;21.07;51.02;97464.69;5026343;28;20120;-38
2023/06/28 07:28:45;;;;;;;4.78;1.48;;;21.20;77.40;;;21.24;51.29;97459.81;5029359;28;20033;-38
2023/06/28 07:31:11;;;;;;;2.88;1.20;;;21.30;78.10;;;21.33;49.90;97464.44;5030487;28;20040;-38
2023/06/28 07:33:37;;;;;;;2.83;1.60;;;21.40;77.50;;;21.39;48.62;97461.28;5031265;28;20163;-38
2023/06/28 07:36:03;;;;;;;2.53;1.40;;;21.50;76.20;;;21.37;48.82;97455.16;5030090;28;20044;-38
2023/06/28 07:38:29;;;;;;;6.13;1.80;;;21.50;75.80;;;21.27;48.58;97478.34;5027956;28;20063;-37
2023/06/28 07:40:54;;;;;;;3.08;1.73;;;21.50;75.40;;;21.30;47.91;97480.78;5031969;28;20474;-37
2023/06/28 07:43:20;;;;;;;5.53;1.38;;;21.40;74.90;;;21.30;49.28;97475.41;5026419;28;20021;-37
2023/06/28 07:45:46;;;;;;;3.42;1.75;;;21.40;75.30;;;21.33;48.80;97472.50;5021422;28;20529;-37
2023/06/28 07:48:12;;;;;;;4.28;1.48;;;21.50;75.80;;;21.44;49.83;97480.53;5023463;28;20090;-37
2023/06/28 07:50:38;;;;;;;4.50;1.40;;;21.50;76.50;;;21.42;49.82;97477.13;5027712;28;20041;-37
2023/06/28 07:53:04;;;;;;;2.85;1.27;;;21.50;76.00;;;21.52;47.51;97482.66;5031620;28;20037;-37
2023/06/28 07:55:30;;;;;;;4.82;1.40;;;21.60;74.60;;;21.56;48.58;97477.88;5027713;28;20024;-37
2023/06/28 07:57:57;;;;;;;2.03;1.23;;;21.70;74.60;;;21.62;48.26;97477.38;5031308;28;20029;-37
2023/06/28 08:00:24;;;;;;;3.05;1.35;;;21.70;75.30;;;21.69;47.70;97475.91;5028102;28;20061;-37
2023/06/28 08:02:50;;;;;;;3.08;1.50;;;21.80;74.40;;;21.76;47.44;97479.78;5033009;28;20108;-37
2023/06/28 08:05:16;;;;;;;4.50;1.55;;;21.90;74.80;;;21.77;45.70;97462.72;5025889;28;20131;-37
2023/06/28 08:07:42;;;;;;;2.45;1.20;;;22.00;72.80;;;21.97;45.88;97473.66;5030423;28;20533;-37
2023/06/28 08:10:08;;;;;;;4.07;1.60;;;22.10;72.70;;;22.10;45.95;97477.03;5026464;28;20211;-37
2023/06/28 08:12:34;;;;;;;5.25;1.70;;;22.20;72.10;;;22.25;44.16;97478.47;5032217;28;20372;-37
2023/06/28 08:15:00;;;;;;;3.95;1.67;;;22.40;71.20;;;22.36;44.95;97468.66;5030967;28;20036;-37
2023/06/28 08:17:26;;;;;;;7.53;1.90;;;22.50;71.30;;;22.45;44.58;97470.56;5027841;28;20048;-37
2023/06/28 08:19:54;;;;;;;4.82;1.73;;;22.60;70.70;;;22.42;43.95;97474.38;5028492;28;20064;-37
2023/06/28 08:22:20;;;;;;;2.70;1.92;;;22.60;70.00;;;22.35;42.50;97473.19;5031136;28;20037;-37
2023/06/28 08:24:46;;;;;;;2.53;1.33;;;22.60;67.90;;;22.42;44.32;97469.00;5031785;28;20045;-37
2023/06/28 08:27:11;;;;;;;3.17;1.48;;;22.50;68.80;;;22.48;42.77;97470.31;5032294;28;20033;-37
2023/06/28 08:29:37;;;;;;;6.10;1.88;;;22.50;69.00;;;22.46;43.16;97478.50;5033492;28;20052;-37
2023/06/28 08:32:03;;;;;;;8.88;1.55;;;22.50;68.50;;;22.36;43.32;97474.03;5032675;28;20028;-37
2023/06/28 08:34:29;;;;;;;1.85;1.40;;;22.50;68.50;;;22.47;43.97;97477.53;5033373;28;20041;-37
2023/06/28 08:36:54;;;;;;;2.38;1.17;;;22.50;69.70;;;22.54;44.30;97472.50;5034355;28;20733;-37
2023/06/28 08:39:20;;;;;;;3.95;1.50;;;22.60;70.30;;;22.61;44.21;97476.38;5030982;28;20032;-37
2023/06/28 08:41:47;;;;;;;4.93;1.85;;;22.60;70.20;;;22.65;44.28;97475.13;5035987;28;20024;-37
2023/06/28 08:44:14;;;;;;;5.40;1.80;;;22.70;70.40;;;22.65;43.45;97475.13;5031682;28;20587;-37
2023/06/28 08:46:44;;;;;;;4.97;1.48;;;22.80;70.10;;;22.82;43.57;97468.28;5031068;28;20502;-37
2023/06/28 08:49:12;;;;;;;3.28;1.25;;;23.00;69.30;;;23.01;42.60;97459.50;5032701;28;20449;-37
2023/06/28 08:51:39;;;;;;;3.03;1.33;;;23.20;68.60;;;23.28;42.39;97474.25;5032389;28;20174;-37
2023/06/28 08:54:07;;;;;;;6.03;2.15;;;23.50;67.60;;;23.46;42.25;97471.78;5034782;28;20029;-37
2023/06/28 08:56:33;;;;;;;5.70;1.80;;;23.70;67.40;;;23.66;41.04;97474.53;5030923;28;20095;-37
2023/06/28 08:59:00;;;;;;;6.13;1.85;;;23.90;65.20;;;23.67;40.23;97471.72;5033646;28;20922;-37
2023/06/28 09:01:26;;;;;;;4.38;1.55;;;24.00;64.60;;;23.69;39.73;97476.94;5030340;28;20037;-37
2023/06/28 09:03:53;;;;;;;5.13;2.00;;;24.00;64.50;;;23.59;40.24;97474.22;5012985;28;20082;-37
2023/06/28 09:06:21;;;;;;;3.53;1.67;;;23.90;64.30;;;23.53;40.57;97469.41;5029047;28;20072;-37
2023/06/28 09:08:47;;;;;;;4.55;1.50;;;23.70;64.70;;;23.72;40.95;97468.59;5029985;28;20051;-37
2023/06/28 09:11:16;;;;;;;6.45;1.75;;;23.80;66.10;;;23.89;42.47;97464.44;5031644;28;20029;-37
2023/06/28 09:13:42;;;;;;;3.85;1.65;;;24.00;66.90;;;24.22;40.96;97470.44;5015301;28;20037;-37
2023/06/28 09:16:09;;;;;;;4.60;1.98;;;24.30;66.50;;;24.38;40.73;97460.78;5025676;28;20080;-37
2023/06/28 09:18:35;;;;;;;3.95;1.70;;;24.60;66.50;;;24.65;39.35;97461.09;5031567;28;20051;-37
2023/06/28 09:21:01;;;;;;;3.80;1.77;;;24.80;63.50;;;24.77;38.24;97474.25;5033989;28;20025;-37
2023/06/28 09:23:29;;;;;;;3.58;1.70;;;24.90;62.00;;;24.63;36.73;97466.63;5030088;28;20048;-37
2023/06/28 09:25:56;;;;;;;2.63;1.40;;;24.90;59.70;;;24.69;37.96;97465.19;5026771;28;20678;-37
2023/06/28 09:28:35;;;;;;;2.33;1.27;;;24.70;60.60;;;24.72;37.27;97473.84;5031990;28;20065;-37
2023/06/28 09:31:04;;;;;;;2.90;1.50;;;24.90;61.20;;;24.64;38.97;97462.06;5027554;28;20025;-37
2023/06/28 09:33:31;;;;;;;5.22;1.83;;;24.90;62.30;;;24.83;38.42;97472.00;5031337;28;20029;-37
2023/06/28 09:35:58;;;;;;;4.90;1.40;;;24.90;61.80;;;24.85;37.36;97457.34;5025330;28;20054;-37
2023/06/28 09:38:25;;;;;;;3.83;1.90;;;25.00;60.40;;;24.84;37.68;97454.84;5031562;28;20083;-37
2023/06/28 09:40:59;;;;;;;3.58;1.90;;;25.00;61.00;;;24.87;38.11;97455.38;5032137;28;20446;-37
2023/06/28 09:43:35;;;;;;;5.80;2.00;;;24.90;61.40;;;24.68;37.64;97450.03;5028999;28;20032;-37
2023/06/28 09:46:17;;;;;;;8.15;1.80;;;25.00;60.80;;;24.76;38.80;97463.63;5024654;28;20021;-40
2023/06/28 09:48:53;;;;;;;4.18;1.75;;;24.90;61.50;;;24.94;37.74;97461.91;5026423;28;20053;-38
2023/06/28 09:51:18;;;;;;;3.22;1.80;;;25.00;61.10;;;24.95;38.07;97460.88;5021751;28;20135;-38
2023/06/28 09:53:49;;;;;;;3.88;1.48;;;25.20;61.60;;;25.14;37.36;97461.81;5030664;28;20475;-38
2023/06/28 09:56:16;;;;;;;4.13;1.90;;;25.40;60.40;;;25.12;37.16;97464.69;5028204;28;20036;-38
2023/06/28 09:58:47;;;;;;;5.30;1.55;;;25.30;60.30;;;25.30;37.47;97467.50;5031012;28;20520;-38
2023/06/28 10:01:15;;;;;;;5.82;1.60;;;25.40;60.50;;;25.29;37.13;97457.69;5028411;28;20120;-38
2023/06/28 10:03:45;;;;;;;2.92;1.35;;;25.30;60.10;;;24.88;37.70;97440.88;5028433;28;21407;-38
2023/06/28 10:06:12;;;;;;;4.05;1.73;;;25.20;59.80;;;24.68;37.36;97456.25;5024743;28;20757;-38
2023/06/28 10:08:39;;;;;;;5.45;1.60;;;24.90;59.90;;;24.54;38.57;97459.41;5009260;28;20061;-38
2023/06/28 10:11:15;;;;;;;3.78;1.63;;;24.70;61.30;;;24.44;38.44;97451.25;5029024;28;20040;-38
2023/06/28 10:13:43;;;;;;;4.20;1.75;;;24.60;61.40;;;24.22;37.61;97460.50;5027802;28;20080;-38
2023/06/28 10:16:24;;;;;;;5.72;1.67;;;24.60;60.40;;;24.12;39.40;97449.72;5010032;28;20029;-38
2023/06/28 10:18:50;;;;;;;2.58;1.50;;;24.30;62.30;;;24.16;40.67;97445.75;5032240;28;20494;-38